Time,TemperatureF,DewpointF,PressureIn,WindDirection,WindDirectionDegrees,WindSpeedMPH,WindSpeedGustMPH,Humidity,HourlyPrecipIn,Conditions,Clouds,dailyrainin,SoftwareType,DateUTC
2013-08-17 00:03:00,78.9,41.1,29.78,SSW,209,2.3,2.3,26,0.00,OVC,,0.00,WeatherDisplay:10.37,2013-08-17 07:03:00,
2013-08-17 00:08:00,79.1,41.3,29.77,SSW,209,2.0,2.0,26,0.00,OVC,,0.00,WeatherDisplay:10.37,2013-08-17 07:08:00,
2013-08-17 00:13:00,78.9,42.1,29.77,South,177,3.5,3.5,27,0.00,OVC,,0.00,WeatherDisplay:10.37,2013-08-17 07:13:00,
2013-08-17 00:18:00,78.9,44.8,29.77,South,187,8.0,8.0,30,0.00,OVC,,0.00,WeatherDisplay:10.37,2013-08-17 07:18:00,
2013-08-17 00:23:00,78.7,43.8,29.77,SSE,163,5.8,5.8,29,0.00,OVC,,0.00,WeatherDisplay:10.37,2013-08-17 07:23:00,
2013-08-17 00:28:00,78.3,43.4,29.77,South,173,8.0,8.0,29,0.00,OVC,,0.00,WeatherDisplay:10.37,2013-08-17 07:28:00,
2013-08-17 00:33:00,77.5,42.7,29.77,SSE,161,4.0,4.0,29,0.00,OVC,,0.00,WeatherDisplay:10.37,2013-08-17 07:33:00,
2013-08-17 00:38:00,76.9,44.0,29.77,South,177,6.9,6.9,31,0.00,OVC,,0.00,WeatherDisplay:10.37,2013-08-17 07:38:00,
2013-08-17 00:43:00,75.3,43.4,29.77,SSW,203,6.0,6.0,32,0.00,OVC,,0.00,WeatherDisplay:10.37,2013-08-17 07:43:00,
2013-08-17 00:48:00,73.7,45.1,29.77,SW,217,7.0,7.0,36,0.00,OVC,,0.00,WeatherDisplay:10.37,2013-08-17 07:48:00,
2013-08-17 00:53:00,73.5,45.6,29.77,SSW,213,7.0,7.0,37,0.00,OVC,,0.00,WeatherDisplay:10.37,2013-08-17 07:53:00,
2013-08-17 00:58:00,73.2,45.4,29.77,SSW,205,7.0,7.0,37,0.00,OVC,,0.00,WeatherDisplay:10.37,2013-08-17 07:58:00,
2013-08-17 01:03:00,72.4,44.6,29.77,SW,231,6.9,6.9,37,0.00,OVC,,0.00,WeatherDisplay:10.37,2013-08-17 08:03:00,
2013-08-17 01:08:00,71.6,44.6,29.77,SW,231,6.0,6.0,38,0.00,OVC,,0.00,WeatherDisplay:10.37,2013-08-17 08:08:00,
2013-08-17 01:13:00,71.2,45.0,29.76,SW,227,6.0,6.0,39,0.00,OVC,,0.00,WeatherDisplay:10.37,2013-08-17 08:13:00,
2013-08-17 01:18:00,70.8,44.6,29.76,SW,235,6.0,6.0,39,0.00,OVC,,0.00,WeatherDisplay:10.37,2013-08-17 08:18:00,
2013-08-17 01:23:00,70.4,44.3,29.76,WSW,238,6.0,6.0,39,0.00,OVC,,0.00,WeatherDisplay:10.37,2013-08-17 08:23:00,
2013-08-17 01:28:00,70.3,44.2,29.76,WSW,252,6.0,6.0,39,0.00,OVC,,0.00,WeatherDisplay:10.37,2013-08-17 08:28:00,
2013-08-17 01:33:00,70.2,44.1,29.76,WSW,252,4.0,4.0,39,0.00,OVC,,0.00,WeatherDisplay:10.37,2013-08-17 08:33:00,
2013-08-17 01:38:00,70.4,43.6,29.76,SW,232,3.5,3.5,38,0.00,OVC,,0.00,WeatherDisplay:10.37,2013-08-17 08:38:00,
2013-08-17 01:43:00,71.2,45.0,29.76,SW,232,5.0,5.0,39,0.00,OVC,,0.00,WeatherDisplay:10.37,2013-08-17 08:43:00,
2013-08-17 01:48:00,71.6,44.6,29.76,SW,223,5.8,5.8,38,0.00,OVC,,0.00,WeatherDisplay:10.37,2013-08-17 08:48:00,
2013-08-17 01:53:00,72.3,44.6,29.75,SW,232,6.9,6.9,37,0.00,OVC,,0.00,WeatherDisplay:10.37,2013-08-17 08:53:00,
2013-08-17 01:58:00,72.1,44.4,29.75,WSW,240,6.0,6.0,37,0.00,OVC,,0.00,WeatherDisplay:10.37,2013-08-17 08:58:00,
2013-08-17 02:03:00,71.8,44.8,29.75,WSW,246,5.8,5.8,38,0.00,OVC,,0.00,WeatherDisplay:10.37,2013-08-17 09:03:00,
2013-08-17 02:08:00,71.7,44.7,29.75,WSW,245,5.0,5.0,38,0.00,OVC,,0.00,WeatherDisplay:10.37,2013-08-17 09:08:00,
2013-08-17 02:13:00,71.5,43.8,29.75,SW,234,5.8,5.8,37,0.00,OVC,,0.00,WeatherDisplay:10.37,2013-08-17 09:13:00,
2013-08-17 02:18:00,70.9,43.3,29.75,SW,236,4.6,4.8,37,0.00,OVC,,0.00,WeatherDisplay:10.37,2013-08-17 09:18:00,
2013-08-17 02:23:00,70.3,42.8,29.75,SW,236,4.0,4.0,37,0.00,OVC,,0.00,WeatherDisplay:10.37,2013-08-17 09:23:00,
2013-08-17 02:28:00,69.9,43.1,29.75,SW,236,3.5,3.5,38,0.00,OVC,,0.00,WeatherDisplay:10.37,2013-08-17 09:28:00,
2013-08-17 02:33:00,70.0,43.9,29.75,SW,236,5.0,5.0,39,0.00,OVC,,0.00,WeatherDisplay:10.37,2013-08-17 09:33:00,
2013-08-17 02:38:00,70.3,43.5,29.75,WSW,252,7.0,7.0,38,0.00,OVC,,0.00,WeatherDisplay:10.37,2013-08-17 09:38:00,
2013-08-17 02:43:00,71.4,44.5,29.75,WSW,254,6.9,6.9,38,0.00,OVC,,0.00,WeatherDisplay:10.37,2013-08-17 09:43:00,
2013-08-17 02:48:00,73.2,43.9,29.75,WSW,243,8.1,8.1,35,0.00,OVC,,0.00,WeatherDisplay:10.37,2013-08-17 09:48:00,
2013-08-17 02:53:00,73.6,44.2,29.75,WSW,243,6.9,6.9,35,0.00,OVC,,0.00,WeatherDisplay:10.37,2013-08-17 09:53:00,
2013-08-17 02:58:00,74.3,44.1,29.75,WSW,241,8.1,8.1,34,0.00,OVC,,0.00,WeatherDisplay:10.37,2013-08-17 09:58:00,
2013-08-17 03:03:00,74.4,44.2,29.74,WSW,238,9.0,9.0,34,0.00,OVC,,0.00,WeatherDisplay:10.37,2013-08-17 10:03:00,
2013-08-17 03:08:00,75.1,44.8,29.74,WSW,243,8.1,8.1,34,0.00,OVC,,0.00,WeatherDisplay:10.37,2013-08-17 10:08:00,
2013-08-17 03:13:00,74.8,44.5,29.74,WSW,237,8.1,8.1,34,0.00,OVC,,0.00,WeatherDisplay:10.37,2013-08-17 10:13:00,
2013-08-17 03:18:00,74.1,43.9,29.74,WSW,246,6.9,6.9,34,0.00,OVC,,0.00,WeatherDisplay:10.37,2013-08-17 10:18:00,
2013-08-17 03:23:00,73.6,43.5,29.74,WSW,252,7.0,7.0,34,0.00,OVC,,0.00,WeatherDisplay:10.37,2013-08-17 10:23:00,
2013-08-17 03:28:00,73.7,44.3,29.74,WSW,253,6.9,6.9,35,0.00,OVC,,0.00,WeatherDisplay:10.37,2013-08-17 10:28:00,
2013-08-17 03:33:00,73.7,44.3,29.74,West,268,5.8,5.8,35,0.00,OVC,,0.00,WeatherDisplay:10.37,2013-08-17 10:33:00,
2013-08-17 03:38:00,74.4,44.2,29.74,West,269,4.6,4.6,34,0.00,OVC,,0.00,WeatherDisplay:10.37,2013-08-17 10:38:00,
2013-08-17 03:43:00,74.4,43.4,29.74,West,270,4.0,4.0,33,0.00,OVC,,0.00,WeatherDisplay:10.37,2013-08-17 10:43:00,
2013-08-17 03:48:00,74.5,43.5,29.75,West,274,3.5,3.5,33,0.00,OVC,,0.00,WeatherDisplay:10.37,2013-08-17 10:48:00,
2013-08-17 03:53:00,74.6,43.6,29.75,West,279,4.0,4.0,33,0.00,OVC,,0.00,WeatherDisplay:10.37,2013-08-17 10:53:00,
2013-08-17 03:58:00,74.5,44.3,29.75,West,273,5.0,5.0,34,0.00,OVC,,0.00,WeatherDisplay:10.37,2013-08-17 10:58:00,
2013-08-17 04:03:00,74.4,45.0,29.75,West,262,4.6,4.6,35,0.00,OVC,,0.00,WeatherDisplay:10.37,2013-08-17 11:03:00,
2013-08-17 04:08:00,74.4,45.0,29.75,West,262,3.5,3.5,35,0.00,OVC,,0.00,WeatherDisplay:10.37,2013-08-17 11:08:00,
2013-08-17 04:13:00,74.3,45.6,29.75,West,261,4.6,4.6,36,0.00,OVC,,0.00,WeatherDisplay:10.37,2013-08-17 11:13:00,
2013-08-17 04:18:00,74.2,45.5,29.75,WSW,250,5.0,5.0,36,0.00,OVC,,0.00,WeatherDisplay:10.37,2013-08-17 11:18:00,
2013-08-17 04:23:00,73.9,45.3,29.75,West,277,4.0,4.0,36,0.00,OVC,,0.00,WeatherDisplay:10.37,2013-08-17 11:23:00,
2013-08-17 04:28:00,73.5,45.6,29.75,West,273,3.5,3.6,37,0.00,OVC,,0.00,WeatherDisplay:10.37,2013-08-17 11:28:00,
2013-08-17 04:33:00,73.5,45.6,29.75,West,280,5.8,5.8,37,0.00,OVC,,0.00,WeatherDisplay:10.37,2013-08-17 11:33:00,
2013-08-17 04:38:00,73.7,46.5,29.75,West,265,6.9,6.9,38,0.00,OVC,,0.00,WeatherDisplay:10.37,2013-08-17 11:38:00,
2013-08-17 04:43:00,73.8,45.9,29.75,WSW,257,8.0,8.0,37,0.00,OVC,,0.00,WeatherDisplay:10.37,2013-08-17 11:43:00,
2013-08-17 04:48:00,73.4,46.2,29.75,West,269,5.8,5.8,38,0.00,OVC,,0.00,WeatherDisplay:10.37,2013-08-17 11:48:00,
2013-08-17 04:53:00,73.1,46.7,29.75,WSW,256,8.1,8.1,39,0.00,OVC,,0.00,WeatherDisplay:10.37,2013-08-17 11:53:00,
2013-08-17 04:58:00,72.8,47.7,29.75,WSW,238,6.9,6.9,41,0.00,OVC,,0.00,WeatherDisplay:10.37,2013-08-17 11:58:00,
2013-08-17 05:03:00,74.0,48.8,29.75,WSW,252,10.4,10.4,41,0.00,CLR,,0.00,WeatherDisplay:10.37,2013-08-17 12:03:00,
2013-08-17 05:06:00,74.2,49.0,29.74,SW,229,11.5,11.5,41,0.00,OVC,,0.00,WeatherDisplay:10.37,2013-08-17 12:06:00,
2013-08-17 05:11:00,74.0,48.1,29.74,West,262,10.4,10.4,40,0.00,OVC,,0.00,WeatherDisplay:10.37,2013-08-17 12:11:00,
2013-08-17 05:16:00,73.0,47.2,29.74,WSW,257,6.9,6.9,40,0.00,OVC,,0.00,WeatherDisplay:10.37,2013-08-17 12:16:00,
2013-08-17 05:21:00,72.6,46.9,29.74,West,261,7.0,7.0,40,0.00,OVC,,0.00,WeatherDisplay:10.37,2013-08-17 12:21:00,
2013-08-17 05:26:00,72.6,46.2,29.74,West,275,6.9,6.9,39,0.00,OVC,,0.00,WeatherDisplay:10.37,2013-08-17 12:26:00,
2013-08-17 05:31:00,72.2,45.2,29.74,West,267,8.1,8.1,38,0.00,OVC,,0.00,WeatherDisplay:10.37,2013-08-17 12:31:00,
2013-08-17 05:36:00,72.0,45.0,29.74,West,273,7.0,7.0,38,0.00,OVC,,0.00,WeatherDisplay:10.37,2013-08-17 12:36:00,
2013-08-17 05:41:00,71.9,44.9,29.75,West,274,6.9,6.9,38,0.00,OVC,,0.00,WeatherDisplay:10.37,2013-08-17 12:41:00,
2013-08-17 05:46:00,72.0,45.0,29.75,West,268,6.9,6.9,38,0.00,OVC,,0.00,WeatherDisplay:10.37,2013-08-17 12:46:00,
2013-08-17 05:51:00,72.1,45.1,29.75,West,271,6.9,6.9,38,0.00,CLR,,0.00,WeatherDisplay:10.37,2013-08-17 12:51:00,
2013-08-17 05:56:00,71.9,44.9,29.75,WSW,254,6.9,6.9,38,0.00,OVC,,0.00,WeatherDisplay:10.37,2013-08-17 12:56:00,
2013-08-17 06:01:00,71.3,44.4,29.75,WSW,257,7.0,7.0,38,0.00,OVC,,0.00,WeatherDisplay:10.37,2013-08-17 13:01:00,
2013-08-17 06:06:00,71.3,43.7,29.75,West,262,7.0,7.0,37,0.00,OVC,,0.00,WeatherDisplay:10.37,2013-08-17 13:06:00,
2013-08-17 06:11:00,71.5,43.8,29.76,West,267,6.9,6.9,37,0.00,OVC,,0.00,WeatherDisplay:10.37,2013-08-17 13:11:00,
2013-08-17 06:16:00,71.5,43.8,29.76,West,276,6.9,6.9,37,0.00,OVC,,0.00,WeatherDisplay:10.37,2013-08-17 13:16:00,
2013-08-17 06:21:00,71.6,44.6,29.76,West,281,4.6,4.8,38,0.00,OVC,,0.00,WeatherDisplay:10.37,2013-08-17 13:21:00,
2013-08-17 06:26:00,71.8,44.1,29.76,West,278,4.6,4.6,37,0.00,OVC,,0.00,WeatherDisplay:10.37,2013-08-17 13:26:00,
2013-08-17 06:31:00,72.0,44.3,29.76,West,269,5.8,5.8,37,0.00,OVC,,0.00,WeatherDisplay:10.37,2013-08-17 13:31:00,
2013-08-17 06:36:00,72.4,45.4,29.77,West,276,5.8,5.8,38,0.00,OVC,,0.00,WeatherDisplay:10.37,2013-08-17 13:36:00,
2013-08-17 06:41:00,72.9,46.5,29.76,West,268,8.1,8.1,39,0.00,OVC,,0.00,WeatherDisplay:10.37,2013-08-17 13:41:00,
2013-08-17 06:46:00,73.6,47.1,29.76,West,267,5.8,5.8,39,0.00,OVC,,0.00,WeatherDisplay:10.37,2013-08-17 13:46:00,
2013-08-17 06:51:00,73.9,46.7,29.76,West,259,4.6,4.6,38,0.00,OVC,,0.00,WeatherDisplay:10.37,2013-08-17 13:51:00,
2013-08-17 06:56:00,74.1,46.9,29.77,West,263,3.5,3.5,38,0.00,OVC,,0.00,WeatherDisplay:10.37,2013-08-17 13:56:00,
2013-08-17 07:01:00,73.7,45.8,29.77,West,263,0.0,0.0,37,0.00,OVC,,0.00,WeatherDisplay:10.37,2013-08-17 14:01:00,
2013-08-17 07:06:00,73.3,45.4,29.77,West,263,3.5,3.5,37,0.00,OVC,,0.00,WeatherDisplay:10.37,2013-08-17 14:06:00,
2013-08-17 07:11:00,73.1,45.3,29.77,WSW,241,3.5,3.5,37,0.00,OVC,,0.00,WeatherDisplay:10.37,2013-08-17 14:11:00,
2013-08-17 07:16:00,73.6,45.7,29.77,SW,214,4.0,4.0,37,0.00,OVC,,0.00,WeatherDisplay:10.37,2013-08-17 14:16:00,
2013-08-17 07:21:00,74.2,45.5,29.77,SSW,203,4.0,4.0,36,0.00,OVC,,0.00,WeatherDisplay:10.37,2013-08-17 14:21:00,
2013-08-17 07:26:00,75.0,46.2,29.77,SSW,200,4.0,4.0,36,0.00,OVC,,0.00,WeatherDisplay:10.37,2013-08-17 14:26:00,
2013-08-17 07:31:00,75.8,46.2,29.77,WSW,237,3.5,3.5,35,0.00,OVC,,0.00,WeatherDisplay:10.37,2013-08-17 14:31:00,
2013-08-17 07:36:00,76.6,47.6,29.76,WSW,243,4.6,4.9,36,0.00,OVC,,0.00,WeatherDisplay:10.37,2013-08-17 14:36:00,
2013-08-17 07:41:00,77.3,48.3,29.76,WSW,252,5.8,5.8,36,0.00,OVC,,0.00,WeatherDisplay:10.37,2013-08-17 14:41:00,
2013-08-17 07:46:00,77.8,47.9,29.77,SW,218,5.8,5.8,35,0.00,OVC,,0.00,WeatherDisplay:10.37,2013-08-17 14:46:00,
2013-08-17 07:51:00,78.1,48.2,29.76,SW,225,6.0,6.0,35,0.00,OVC,,0.00,WeatherDisplay:10.37,2013-08-17 14:51:00,
2013-08-17 07:56:00,78.7,48.0,29.77,SSW,196,6.9,6.9,34,0.00,OVC,,0.00,WeatherDisplay:10.37,2013-08-17 14:56:00,
2013-08-17 08:01:00,78.9,48.1,29.77,SW,220,4.6,4.6,34,0.00,OVC,,0.00,WeatherDisplay:10.37,2013-08-17 15:01:00,
2013-08-17 08:06:00,79.3,47.7,29.77,SW,231,4.6,4.6,33,0.00,OVC,,0.00,WeatherDisplay:10.37,2013-08-17 15:06:00,
2013-08-17 08:11:00,79.6,48.0,29.77,WSW,248,3.5,3.5,33,0.00,OVC,,0.00,WeatherDisplay:10.37,2013-08-17 15:11:00,
2013-08-17 08:16:00,80.2,48.5,29.77,WSW,242,3.5,3.5,33,0.00,OVC,,0.00,WeatherDisplay:10.37,2013-08-17 15:16:00,
2013-08-17 08:21:00,80.6,48.0,29.77,SW,229,3.5,3.5,32,0.00,OVC,,0.00,WeatherDisplay:10.37,2013-08-17 15:21:00,
2013-08-17 08:26:00,81.2,48.5,29.77,South,184,2.3,2.3,32,0.00,OVC,,0.00,WeatherDisplay:10.37,2013-08-17 15:26:00,
2013-08-17 08:31:00,81.7,48.1,29.77,South,184,1.1,1.5,31,0.00,OVC,,0.00,WeatherDisplay:10.37,2013-08-17 15:31:00,
2013-08-17 08:36:00,82.5,48.8,29.77,South,184,2.3,2.3,31,0.00,OVC,,0.00,WeatherDisplay:10.37,2013-08-17 15:36:00,
2013-08-17 08:41:00,83.6,48.9,29.77,East,87,2.3,2.3,30,0.00,OVC,,0.00,WeatherDisplay:10.37,2013-08-17 15:41:00,
2013-08-17 08:46:00,85.4,49.5,29.77,NNE,32,3.5,3.5,29,0.00,OVC,,0.00,WeatherDisplay:10.37,2013-08-17 15:46:00,
2013-08-17 08:51:00,86.4,49.4,29.77,NNE,26,3.5,3.5,28,0.00,OVC,,0.00,WeatherDisplay:10.37,2013-08-17 15:51:00,
2013-08-17 08:56:00,87.3,50.2,29.77,WNW,297,3.5,3.5,28,0.00,OVC,,0.00,WeatherDisplay:10.37,2013-08-17 15:56:00,
2013-08-17 09:01:00,87.2,51.1,29.77,NE,38,5.0,5.0,29,0.00,OVC,,0.00,WeatherDisplay:10.37,2013-08-17 16:01:00,
2013-08-17 09:06:00,87.6,49.5,29.77,SSW,195,4.6,4.6,27,0.00,OVC,,0.00,WeatherDisplay:10.37,2013-08-17 16:06:00,
2013-08-17 09:11:00,87.1,49.1,29.77,SSE,148,5.0,5.0,27,0.00,OVC,,0.00,WeatherDisplay:10.37,2013-08-17 16:11:00,
2013-08-17 09:16:00,87.0,49.0,29.76,WNW,302,4.0,4.0,27,0.00,OVC,,0.00,WeatherDisplay:10.37,2013-08-17 16:16:00,
2013-08-17 09:21:00,87.6,48.5,29.76,WNW,298,2.3,2.3,26,0.00,OVC,,0.00,WeatherDisplay:10.37,2013-08-17 16:21:00,
2013-08-17 09:26:00,88.3,49.1,29.76,South,173,11.5,11.5,26,0.00,CLR,,0.00,WeatherDisplay:10.37,2013-08-17 16:26:00,
2013-08-17 09:31:00,88.3,50.1,29.76,SSE,155,9.2,9.2,27,0.00,OVC,,0.00,WeatherDisplay:10.37,2013-08-17 16:31:00,
2013-08-17 09:36:00,88.1,48.9,29.76,SE,136,10.4,10.4,26,0.00,OVC,,0.00,WeatherDisplay:10.37,2013-08-17 16:36:00,
2013-08-17 09:41:00,88.6,49.3,29.76,SSE,150,12.7,12.7,26,0.00,OVC,,0.00,WeatherDisplay:10.37,2013-08-17 16:41:00,
2013-08-17 09:46:00,88.7,48.4,29.76,SE,136,11.5,11.5,25,0.00,OVC,,0.00,WeatherDisplay:10.37,2013-08-17 16:46:00,
2013-08-17 09:51:00,88.7,49.4,29.76,East,95,4.6,4.6,26,0.00,OVC,,0.00,WeatherDisplay:10.37,2013-08-17 16:51:00,
2013-08-17 09:56:00,89.3,48.9,29.76,East,92,10.0,10.0,25,0.00,OVC,,0.00,WeatherDisplay:10.37,2013-08-17 16:56:00,
2013-08-17 10:01:00,90.4,48.7,29.76,SSE,157,11.5,11.5,24,0.00,OVC,,0.00,WeatherDisplay:10.37,2013-08-17 17:01:00,
2013-08-17 10:06:00,90.2,47.4,29.76,SSE,147,10.4,10.4,23,0.00,CLR,,0.00,WeatherDisplay:10.37,2013-08-17 17:06:00,
2013-08-17 10:11:00,90.3,48.6,29.76,SSE,149,11.5,11.5,24,0.00,CLR,,0.00,WeatherDisplay:10.37,2013-08-17 17:11:00,
2013-08-17 10:16:00,90.6,47.7,29.76,South,189,11.5,11.5,23,0.00,CLR,,0.00,WeatherDisplay:10.37,2013-08-17 17:16:00,
2013-08-17 10:21:00,91.1,47.0,29.76,South,176,6.9,6.9,22,0.00,CLR,,0.00,WeatherDisplay:10.37,2013-08-17 17:21:00,
2013-08-17 10:26:00,91.2,47.0,29.76,SE,135,10.4,10.4,22,0.00,CLR,,0.00,WeatherDisplay:10.37,2013-08-17 17:26:00,
2013-08-17 10:31:00,91.6,47.4,29.76,ESE,117,11.5,11.5,22,0.00,CLR,,0.00,WeatherDisplay:10.37,2013-08-17 17:31:00,
2013-08-17 10:36:00,91.6,47.4,29.75,SSE,155,2.3,2.3,22,0.00,CLR,,0.00,WeatherDisplay:10.37,2013-08-17 17:36:00,
2013-08-17 10:41:00,92.1,47.8,29.75,SSE,158,11.5,11.5,22,0.00,CLR,,0.00,WeatherDisplay:10.37,2013-08-17 17:41:00,
2013-08-17 10:46:00,92.2,46.6,29.75,SSE,163,11.5,11.5,21,0.00,CLR,,0.00,WeatherDisplay:10.37,2013-08-17 17:46:00,
2013-08-17 10:51:00,92.8,47.1,29.75,SE,142,8.0,8.0,21,0.00,CLR,,0.00,WeatherDisplay:10.37,2013-08-17 17:51:00,
2013-08-17 10:56:00,93.0,47.3,29.75,South,178,8.1,8.1,21,0.00,CLR,,0.00,WeatherDisplay:10.37,2013-08-17 17:56:00,
2013-08-17 11:01:00,93.6,46.5,29.75,SE,128,10.4,10.4,20,0.00,CLR,,0.00,WeatherDisplay:10.37,2013-08-17 18:01:00,
2013-08-17 11:06:00,93.4,46.3,29.75,ESE,117,4.6,4.6,20,0.00,CLR,,0.00,WeatherDisplay:10.37,2013-08-17 18:06:00,
2013-08-17 11:11:00,93.8,46.7,29.75,SE,143,11.5,11.5,20,0.00,CLR,,0.00,WeatherDisplay:10.37,2013-08-17 18:11:00,
2013-08-17 11:16:00,93.6,46.5,29.74,East,99,9.2,9.2,20,0.00,CLR,,0.00,WeatherDisplay:10.37,2013-08-17 18:16:00,
2013-08-17 11:21:00,93.8,48.0,29.74,SSE,164,10.4,10.4,21,0.00,CLR,,0.00,WeatherDisplay:10.37,2013-08-17 18:21:00,
2013-08-17 11:26:00,94.5,47.2,29.74,SSE,155,11.5,11.5,20,0.00,CLR,,0.00,WeatherDisplay:10.37,2013-08-17 18:26:00,
2013-08-17 11:31:00,94.6,47.3,29.74,SSW,212,3.5,3.5,20,0.00,CLR,,0.00,WeatherDisplay:10.37,2013-08-17 18:31:00,
2013-08-17 11:36:00,94.9,47.6,29.74,South,180,3.5,3.5,20,0.00,CLR,,0.00,WeatherDisplay:10.37,2013-08-17 18:36:00,
2013-08-17 11:41:00,95.1,46.4,29.74,ESE,114,10.4,10.4,19,0.00,CLR,,0.00,WeatherDisplay:10.37,2013-08-17 18:41:00,
2013-08-17 11:46:00,95.8,46.9,29.73,SSE,149,6.9,6.9,19,0.00,CLR,,0.00,WeatherDisplay:10.37,2013-08-17 18:46:00,
2013-08-17 11:51:00,95.8,46.9,29.73,South,188,11.5,11.5,19,0.00,CLR,,0.00,WeatherDisplay:10.37,2013-08-17 18:51:00,
2013-08-17 11:56:00,95.6,45.3,29.73,SSE,159,11.5,11.5,18,0.00,CLR,,0.00,WeatherDisplay:10.37,2013-08-17 18:56:00,
2013-08-17 12:01:00,96.3,45.9,29.73,SW,225,15.0,15.0,18,0.00,CLR,,0.00,WeatherDisplay:10.37,2013-08-17 19:01:00,
2013-08-17 12:06:00,95.8,46.9,29.73,SSE,150,10.0,10.0,19,0.00,CLR,,0.00,WeatherDisplay:10.37,2013-08-17 19:06:00,
2013-08-17 12:11:00,96.2,44.3,29.72,SSE,150,13.8,13.8,17,0.00,CLR,,0.00,WeatherDisplay:10.37,2013-08-17 19:11:00,
2013-08-17 12:16:00,96.5,44.6,29.72,SSE,157,19.6,19.6,17,0.00,CLR,,0.00,WeatherDisplay:10.37,2013-08-17 19:16:00,
2013-08-17 12:21:00,97.0,43.4,29.72,SSE,148,12.7,12.7,16,0.00,CLR,,0.00,WeatherDisplay:10.37,2013-08-17 19:21:00,
2013-08-17 12:26:00,96.5,43.0,29.71,SSE,157,18.4,18.4,16,0.00,CLR,,0.00,WeatherDisplay:10.37,2013-08-17 19:26:00,
2013-08-17 12:31:00,96.6,44.6,29.72,SSE,164,13.8,13.8,17,0.00,CLR,,0.00,WeatherDisplay:10.37,2013-08-17 19:31:00,
2013-08-17 12:36:00,96.8,43.2,29.71,SSE,150,18.4,18.4,16,0.00,CLR,,0.00,WeatherDisplay:10.37,2013-08-17 19:36:00,
2013-08-17 12:41:00,97.0,41.7,29.71,NE,42,5.8,5.8,15,0.00,CLR,,0.00,WeatherDisplay:10.37,2013-08-17 19:41:00,
2013-08-17 12:46:00,97.4,40.2,29.71,East,92,25.3,25.3,14,0.00,CLR,,0.00,WeatherDisplay:10.37,2013-08-17 19:46:00,
2013-08-17 12:51:00,97.8,38.6,29.70,ESE,117,13.8,13.8,13,0.00,CLR,,0.00,WeatherDisplay:10.37,2013-08-17 19:51:00,
2013-08-17 12:56:00,97.3,41.9,29.70,SSE,152,17.0,17.0,15,0.00,CLR,,0.00,WeatherDisplay:10.37,2013-08-17 19:56:00,
2013-08-17 13:01:00,98.1,40.8,29.70,SSE,148,15.0,15.0,14,0.00,CLR,,0.00,WeatherDisplay:10.37,2013-08-17 20:01:00,
2013-08-17 13:06:00,97.8,38.6,29.70,ESE,119,15.0,15.0,13,0.00,CLR,,0.00,WeatherDisplay:10.37,2013-08-17 20:06:00,
2013-08-17 13:11:00,98.2,40.8,29.70,SSE,151,16.1,16.1,14,0.00,CLR,,0.00,WeatherDisplay:10.37,2013-08-17 20:11:00,
2013-08-17 13:16:00,97.8,38.6,29.69,SSE,162,13.0,13.0,13,0.00,CLR,,0.00,WeatherDisplay:10.37,2013-08-17 20:16:00,
2013-08-17 13:21:00,97.8,38.6,29.69,SE,131,11.5,11.5,13,0.00,CLR,,0.00,WeatherDisplay:10.37,2013-08-17 20:21:00,
2013-08-17 13:26:00,98.2,38.9,29.69,SSE,159,19.6,19.6,13,0.00,CLR,,0.00,WeatherDisplay:10.37,2013-08-17 20:26:00,
2013-08-17 13:31:00,98.1,38.9,29.69,ESE,112,15.0,15.0,13,0.00,CLR,,0.00,WeatherDisplay:10.37,2013-08-17 20:31:00,
2013-08-17 13:36:00,99.2,39.7,29.69,SE,143,26.5,26.5,13,0.00,CLR,,0.00,WeatherDisplay:10.37,2013-08-17 20:36:00,
2013-08-17 13:41:00,98.7,39.3,29.69,SE,146,19.6,19.6,13,0.00,CLR,,0.00,WeatherDisplay:10.37,2013-08-17 20:41:00,
2013-08-17 13:46:00,99.2,37.7,29.69,SE,134,15.0,15.1,12,0.00,CLR,,0.00,WeatherDisplay:10.37,2013-08-17 20:46:00,
2013-08-17 13:51:00,98.9,37.4,29.69,South,181,13.8,13.8,12,0.00,CLR,,0.00,WeatherDisplay:10.37,2013-08-17 20:51:00,
2013-08-17 13:56:00,99.0,37.5,29.68,SE,134,18.4,18.4,12,0.00,CLR,,0.00,WeatherDisplay:10.37,2013-08-17 20:56:00,
2013-08-17 14:01:00,99.2,35.5,29.68,SE,146,16.0,16.0,11,0.00,CLR,,0.00,WeatherDisplay:10.37,2013-08-17 21:01:00,
2013-08-17 14:06:00,99.1,33.0,29.68,SE,144,19.6,19.6,10,0.00,CLR,,0.00,WeatherDisplay:10.37,2013-08-17 21:06:00,
2013-08-17 14:11:00,99.5,35.7,29.68,South,182,19.6,19.6,11,0.00,CLR,,0.00,WeatherDisplay:10.37,2013-08-17 21:11:00,
2013-08-17 14:16:00,99.1,33.0,29.67,SSE,162,19.6,19.6,10,0.00,CLR,,0.00,WeatherDisplay:10.37,2013-08-17 21:16:00,
2013-08-17 14:21:00,99.4,33.2,29.67,SSE,155,21.9,21.9,10,0.00,CLR,,0.00,WeatherDisplay:10.37,2013-08-17 21:21:00,
2013-08-17 14:26:00,99.3,33.1,29.67,South,178,17.3,17.3,10,0.00,CLR,,0.00,WeatherDisplay:10.37,2013-08-17 21:26:00,
2013-08-17 14:31:00,99.4,30.6,29.67,SSE,148,21.9,21.9,9,0.00,CLR,,0.00,WeatherDisplay:10.37,2013-08-17 21:31:00,
2013-08-17 14:36:00,99.0,30.3,29.67,South,185,19.6,19.6,9,0.00,CLR,,0.00,WeatherDisplay:10.37,2013-08-17 21:36:00,
2013-08-17 14:41:00,99.1,30.4,29.66,SSE,150,19.6,19.6,9,0.00,CLR,,0.00,WeatherDisplay:10.37,2013-08-17 21:41:00,
2013-08-17 14:46:00,99.4,30.6,29.66,SSE,157,18.4,18.4,9,0.00,CLR,,0.00,WeatherDisplay:10.37,2013-08-17 21:46:00,
2013-08-17 14:51:00,99.2,30.5,29.66,SE,142,19.6,19.6,9,0.00,CLR,,0.00,WeatherDisplay:10.37,2013-08-17 21:51:00,
2013-08-17 14:56:00,99.3,33.1,29.66,SSE,157,19.6,19.6,10,0.00,CLR,,0.00,WeatherDisplay:10.37,2013-08-17 21:56:00,
2013-08-17 15:01:00,99.3,30.5,29.66,SSE,163,19.6,19.6,9,0.00,CLR,,0.00,WeatherDisplay:10.37,2013-08-17 22:01:00,
2013-08-17 15:06:00,99.3,30.5,29.66,SSE,155,13.8,13.8,9,0.00,CLR,,0.00,WeatherDisplay:10.37,2013-08-17 22:06:00,
2013-08-17 15:11:00,99.4,30.6,29.65,SE,146,19.6,19.6,9,0.00,CLR,,0.00,WeatherDisplay:10.37,2013-08-17 22:11:00,
2013-08-17 15:16:00,99.4,27.7,29.65,SE,146,21.9,21.9,8,0.00,CLR,,0.00,WeatherDisplay:10.37,2013-08-17 22:16:00,
2013-08-17 15:21:00,99.9,28.1,29.65,SSE,151,18.4,18.4,8,0.00,CLR,,0.00,WeatherDisplay:10.37,2013-08-17 22:21:00,
2013-08-17 15:26:00,99.6,24.6,29.65,SE,143,26.5,26.5,7,0.00,CLR,,0.00,WeatherDisplay:10.37,2013-08-17 22:26:00,
2013-08-17 15:31:00,99.8,24.8,29.64,SSE,150,19.6,19.6,7,0.00,CLR,,0.00,WeatherDisplay:10.37,2013-08-17 22:31:00,
2013-08-17 15:36:00,99.3,24.4,29.65,SSE,149,19.6,19.6,7,0.00,CLR,,0.00,WeatherDisplay:10.37,2013-08-17 22:36:00,
2013-08-17 15:41:00,99.8,24.8,29.64,South,174,25.3,25.3,7,0.00,CLR,,0.00,WeatherDisplay:10.37,2013-08-17 22:41:00,
2013-08-17 15:46:00,99.7,30.8,29.64,SSE,150,23.0,23.0,9,0.00,CLR,,0.00,WeatherDisplay:10.37,2013-08-17 22:46:00,
2013-08-17 15:51:00,99.9,24.9,29.64,South,173,23.0,23.0,7,0.00,CLR,,0.00,WeatherDisplay:10.37,2013-08-17 22:51:00,
2013-08-17 15:56:00,99.6,24.6,29.64,South,190,24.2,24.2,7,0.00,CLR,,0.00,WeatherDisplay:10.37,2013-08-17 22:56:00,
2013-08-17 16:01:00,99.3,30.5,29.64,South,169,24.2,24.2,9,0.00,CLR,,0.00,WeatherDisplay:10.37,2013-08-17 23:01:00,
2013-08-17 16:06:00,99.3,33.1,29.64,SSE,156,20.7,20.7,10,0.00,CLR,,0.00,WeatherDisplay:10.37,2013-08-17 23:06:00,
2013-08-17 16:11:00,99.2,30.5,29.63,SSE,161,25.3,25.3,9,0.00,CLR,,0.00,WeatherDisplay:10.37,2013-08-17 23:11:00,
2013-08-17 16:16:00,99.1,35.4,29.63,SSE,150,24.2,24.2,11,0.00,CLR,,0.00,WeatherDisplay:10.37,2013-08-17 23:16:00,
2013-08-17 16:21:00,98.6,32.6,29.63,South,170,26.5,26.5,10,0.00,CLR,,0.00,WeatherDisplay:10.37,2013-08-17 23:21:00,
2013-08-17 16:26:00,98.2,34.7,29.63,SSE,160,19.6,19.6,11,0.00,CLR,,0.00,WeatherDisplay:10.37,2013-08-17 23:26:00,
2013-08-17 16:31:00,98.2,29.7,29.63,South,186,26.5,26.5,9,0.00,CLR,,0.00,WeatherDisplay:10.37,2013-08-17 23:31:00,
2013-08-17 16:36:00,98.3,26.9,29.64,SE,138,19.6,20.0,8,0.00,CLR,,0.00,WeatherDisplay:10.37,2013-08-17 23:36:00,
2013-08-17 16:41:00,98.2,32.3,29.64,SSE,153,25.3,25.3,10,0.00,CLR,,0.00,WeatherDisplay:10.37,2013-08-17 23:41:00,
2013-08-17 16:46:00,97.9,34.5,29.64,SSE,155,26.0,26.0,11,0.00,CLR,,0.00,WeatherDisplay:10.37,2013-08-17 23:46:00,
2013-08-17 16:51:00,97.7,34.3,29.64,South,172,25.3,25.3,11,0.00,CLR,,0.00,WeatherDisplay:10.37,2013-08-17 23:51:00,
2013-08-17 16:56:00,97.1,33.9,29.63,SSE,166,26.5,26.5,11,0.00,CLR,,0.00,WeatherDisplay:10.37,2013-08-17 23:56:00,
2013-08-17 17:01:00,97.1,38.1,29.63,SE,134,25.3,25.3,13,0.00,CLR,,0.00,WeatherDisplay:10.37,2013-08-18 00:01:00,
2013-08-17 17:06:00,96.7,35.7,29.63,South,175,24.2,24.2,12,0.00,CLR,,0.00,WeatherDisplay:10.37,2013-08-18 00:06:00,
2013-08-17 17:11:00,96.7,37.8,29.63,SSE,150,23.0,23.0,13,0.00,CLR,,0.00,WeatherDisplay:10.37,2013-08-18 00:11:00,
2013-08-17 17:16:00,96.3,41.1,29.63,SSE,149,21.9,21.9,15,0.00,CLR,,0.00,WeatherDisplay:10.37,2013-08-18 00:16:00,
2013-08-17 17:21:00,95.5,40.5,29.63,SE,146,23.0,23.0,15,0.00,CLR,,0.00,WeatherDisplay:10.37,2013-08-18 00:21:00,
2013-08-17 17:26:00,96.2,41.1,29.63,SSE,148,23.0,23.0,15,0.00,CLR,,0.00,WeatherDisplay:10.37,2013-08-18 00:26:00,
2013-08-17 17:31:00,95.7,40.7,29.63,SSE,154,23.0,23.0,15,0.00,CLR,,0.00,WeatherDisplay:10.37,2013-08-18 00:31:00,
2013-08-17 17:36:00,95.5,40.5,29.63,South,169,22.0,22.0,15,0.00,CLR,,0.00,WeatherDisplay:10.37,2013-08-18 00:36:00,
2013-08-17 17:41:00,95.2,40.3,29.63,SSE,150,25.0,25.0,15,0.00,CLR,,0.00,WeatherDisplay:10.37,2013-08-18 00:41:00,
2013-08-17 17:46:00,94.9,40.0,29.63,SSE,158,24.2,24.2,15,0.00,CLR,,0.00,WeatherDisplay:10.37,2013-08-18 00:46:00,
2013-08-17 17:51:00,94.3,41.2,29.63,SSE,148,26.5,26.5,16,0.00,CLR,,0.00,WeatherDisplay:10.37,2013-08-18 00:51:00,
2013-08-17 17:56:00,94.0,41.0,29.63,SSE,157,25.3,25.3,16,0.00,CLR,,0.00,WeatherDisplay:10.37,2013-08-18 00:56:00,
2013-08-17 18:01:00,93.8,40.8,29.63,South,170,24.2,24.2,16,0.00,CLR,,0.00,WeatherDisplay:10.37,2013-08-18 01:01:00,
2013-08-17 18:06:00,93.8,40.8,29.63,SSE,160,21.9,21.9,16,0.00,CLR,,0.00,WeatherDisplay:10.37,2013-08-18 01:06:00,
2013-08-17 18:11:00,93.6,42.2,29.63,SSE,159,21.9,21.9,17,0.00,CLR,,0.00,WeatherDisplay:10.37,2013-08-18 01:11:00,
2013-08-17 18:16:00,93.4,42.1,29.62,South,175,25.3,25.3,17,0.00,CLR,,0.00,WeatherDisplay:10.37,2013-08-18 01:16:00,
2013-08-17 18:21:00,92.9,43.1,29.63,SSE,156,24.2,24.2,18,0.00,CLR,,0.00,WeatherDisplay:10.37,2013-08-18 01:21:00,
2013-08-17 18:26:00,92.3,42.7,29.63,SSE,157,25.3,25.3,18,0.00,CLR,,0.00,WeatherDisplay:10.37,2013-08-18 01:26:00,
2013-08-17 18:31:00,91.5,43.4,29.63,SSE,167,23.0,23.0,19,0.00,CLR,,0.00,WeatherDisplay:10.37,2013-08-18 01:31:00,
2013-08-17 18:36:00,91.1,44.4,29.63,SSE,148,24.2,24.2,20,0.00,CLR,,0.00,WeatherDisplay:10.37,2013-08-18 01:36:00,
2013-08-17 18:41:00,90.9,44.3,29.63,South,182,20.7,20.7,20,0.00,CLR,,0.00,WeatherDisplay:10.37,2013-08-18 01:41:00,
2013-08-17 18:46:00,90.7,44.1,29.63,South,178,23.0,23.0,20,0.00,CLR,,0.00,WeatherDisplay:10.37,2013-08-18 01:46:00,
2013-08-17 18:51:00,90.7,44.1,29.63,South,179,20.7,20.7,20,0.00,CLR,,0.00,WeatherDisplay:10.37,2013-08-18 01:51:00,
2013-08-17 18:56:00,90.3,43.8,29.64,SSE,167,21.9,21.9,20,0.00,CLR,,0.00,WeatherDisplay:10.37,2013-08-18 01:56:00,
2013-08-17 19:01:00,89.9,43.5,29.64,South,169,24.2,24.2,20,0.00,CLR,,0.00,WeatherDisplay:10.37,2013-08-18 02:01:00,
2013-08-17 19:06:00,89.9,43.5,29.64,South,170,23.0,23.0,20,0.00,CLR,,0.00,WeatherDisplay:10.37,2013-08-18 02:06:00,
2013-08-17 19:11:00,90.0,43.5,29.64,SSE,163,21.9,21.9,20,0.00,CLR,,0.00,WeatherDisplay:10.37,2013-08-18 02:11:00,
2013-08-17 19:16:00,89.4,44.3,29.64,South,173,19.6,19.6,21,0.00,CLR,,0.00,WeatherDisplay:10.37,2013-08-18 02:16:00,
2013-08-17 19:21:00,89.3,43.0,29.64,South,176,20.7,20.7,20,0.00,CLR,,0.00,WeatherDisplay:10.37,2013-08-18 02:21:00,
2013-08-17 19:26:00,89.7,42.0,29.64,South,190,17.3,17.3,19,0.00,CLR,,0.00,WeatherDisplay:10.37,2013-08-18 02:26:00,
2013-08-17 19:31:00,89.4,43.0,29.64,South,188,19.6,19.6,20,0.00,CLR,,0.00,WeatherDisplay:10.37,2013-08-18 02:31:00,
2013-08-17 19:36:00,89.0,42.7,29.64,South,184,21.0,21.0,20,0.00,CLR,,0.00,WeatherDisplay:10.37,2013-08-18 02:36:00,
2013-08-17 19:41:00,88.7,42.5,29.64,South,184,18.4,18.4,20,0.00,CLR,,0.00,WeatherDisplay:10.37,2013-08-18 02:41:00,
2013-08-17 19:46:00,88.5,42.3,29.65,South,187,19.6,19.6,20,0.00,CLR,,0.00,WeatherDisplay:10.37,2013-08-18 02:46:00,
2013-08-17 19:51:00,87.8,41.7,29.65,SSW,200,18.4,18.4,20,0.00,CLR,,0.00,WeatherDisplay:10.37,2013-08-18 02:51:00,
2013-08-17 19:56:00,87.1,42.4,29.65,SSW,192,16.1,16.1,21,0.00,CLR,,0.00,WeatherDisplay:10.37,2013-08-18 02:56:00,
2013-08-17 20:01:00,86.9,42.3,29.65,SSW,203,15.0,15.0,21,0.00,CLR,,0.00,WeatherDisplay:10.37,2013-08-18 03:01:00,
2013-08-17 20:06:00,86.2,41.7,29.65,SSW,196,17.3,17.3,21,0.00,CLR,,0.00,WeatherDisplay:10.37,2013-08-18 03:06:00,
2013-08-17 20:11:00,85.5,42.3,29.66,SSW,207,13.8,13.8,22,0.00,CLR,,0.00,WeatherDisplay:10.37,2013-08-18 03:11:00,
2013-08-17 20:16:00,85.1,42.0,29.66,SSW,201,12.7,12.7,22,0.00,CLR,,0.00,WeatherDisplay:10.37,2013-08-18 03:16:00,
2013-08-17 20:21:00,85.3,42.1,29.66,South,189,16.1,16.1,22,0.00,CLR,,0.00,WeatherDisplay:10.37,2013-08-18 03:21:00,
2013-08-17 20:26:00,85.3,42.1,29.66,SSW,198,20.7,20.7,22,0.00,CLR,,0.00,WeatherDisplay:10.37,2013-08-18 03:26:00,
2013-08-17 20:31:00,84.5,41.5,29.66,SSW,195,15.0,15.0,22,0.00,CLR,,0.00,WeatherDisplay:10.37,2013-08-18 03:31:00,
2013-08-17 20:36:00,83.9,42.1,29.67,South,189,15.0,15.0,23,0.00,CLR,,0.00,WeatherDisplay:10.37,2013-08-18 03:36:00,
2013-08-17 20:41:00,83.6,41.9,29.67,SSW,193,14.0,14.0,23,0.00,CLR,,0.00,WeatherDisplay:10.37,2013-08-18 03:41:00,
2013-08-17 20:46:00,83.2,42.6,29.67,South,185,13.8,13.8,24,0.00,CLR,,0.00,WeatherDisplay:10.37,2013-08-18 03:46:00,
2013-08-17 20:51:00,82.8,43.4,29.67,South,188,12.7,12.7,25,0.00,CLR,,0.00,WeatherDisplay:10.37,2013-08-18 03:51:00,
2013-08-17 20:56:00,82.9,43.5,29.67,South,184,17.3,17.3,25,0.00,CLR,,0.00,WeatherDisplay:10.37,2013-08-18 03:56:00,
2013-08-17 21:01:00,82.7,43.3,29.67,South,183,17.3,17.3,25,0.00,CLR,,0.00,WeatherDisplay:10.37,2013-08-18 04:01:00,
2013-08-17 21:06:00,82.6,43.2,29.68,South,184,20.0,20.0,25,0.00,CLR,,0.00,WeatherDisplay:10.37,2013-08-18 04:06:00,
2013-08-17 21:11:00,82.7,43.3,29.68,SSW,195,19.6,19.6,25,0.00,CLR,,0.00,WeatherDisplay:10.37,2013-08-18 04:11:00,
2013-08-17 21:16:00,82.5,43.1,29.68,South,190,15.0,15.0,25,0.00,CLR,,0.00,WeatherDisplay:10.37,2013-08-18 04:16:00,
2013-08-17 21:21:00,82.4,43.0,29.68,South,183,18.4,18.4,25,0.00,CLR,,0.00,WeatherDisplay:10.37,2013-08-18 04:21:00,
2013-08-17 21:26:00,82.3,44.0,29.68,South,188,19.6,19.6,26,0.00,CLR,,0.00,WeatherDisplay:10.37,2013-08-18 04:26:00,
2013-08-17 21:31:00,82.3,44.0,29.68,South,183,22.0,22.0,26,0.00,CLR,,0.00,WeatherDisplay:10.37,2013-08-18 04:31:00,
2013-08-17 21:36:00,82.3,44.0,29.68,South,180,19.6,19.6,26,0.00,CLR,,0.00,WeatherDisplay:10.37,2013-08-18 04:36:00,
2013-08-17 21:41:00,82.2,43.9,29.68,South,186,16.1,16.1,26,0.00,CLR,,0.00,WeatherDisplay:10.37,2013-08-18 04:41:00,
2013-08-17 21:46:00,81.9,43.6,29.68,South,182,15.0,15.0,26,0.00,CLR,,0.00,WeatherDisplay:10.37,2013-08-18 04:46:00,
2013-08-17 21:51:00,81.9,43.6,29.68,South,185,18.4,18.4,26,0.00,CLR,,0.00,WeatherDisplay:10.37,2013-08-18 04:51:00,
2013-08-17 21:56:00,81.5,43.3,29.69,South,191,13.8,13.8,26,0.00,CLR,,0.00,WeatherDisplay:10.37,2013-08-18 04:56:00,
2013-08-17 22:01:00,81.1,43.0,29.69,SSW,211,9.2,9.2,26,0.00,CLR,,0.00,WeatherDisplay:10.37,2013-08-18 05:01:00,
2013-08-17 22:06:00,80.7,43.6,29.69,SSW,197,8.1,8.1,27,0.00,CLR,,0.00,WeatherDisplay:10.37,2013-08-18 05:06:00,
2013-08-17 22:11:00,80.6,43.5,29.69,South,185,9.2,9.2,27,0.00,CLR,,0.00,WeatherDisplay:10.37,2013-08-18 05:11:00,
2013-08-17 22:16:00,80.3,43.3,29.69,South,179,10.4,10.4,27,0.00,CLR,,0.00,WeatherDisplay:10.37,2013-08-18 05:16:00,
2013-08-17 22:21:00,79.5,42.6,29.69,South,180,11.5,11.5,27,0.00,CLR,,0.00,WeatherDisplay:10.37,2013-08-18 05:21:00,
2013-08-17 22:26:00,79.2,42.3,29.69,South,184,10.4,10.4,27,0.00,CLR,,0.00,WeatherDisplay:10.37,2013-08-18 05:26:00,
2013-08-17 22:31:00,78.9,43.0,29.69,SW,223,5.8,5.8,28,0.00,CLR,,0.00,WeatherDisplay:10.37,2013-08-18 05:31:00,
2013-08-17 22:36:00,78.7,42.8,29.69,WSW,244,3.5,3.5,28,0.00,CLR,,0.00,WeatherDisplay:10.37,2013-08-18 05:36:00,
2013-08-17 22:42:00,77.8,42.1,29.69,NNE,23,4.0,4.0,28,0.00,CLR,,0.00,WeatherDisplay:10.37,2013-08-18 05:42:00,
2013-08-17 22:47:00,76.9,42.2,29.69,NE,38,3.5,3.5,29,0.00,CLR,,0.00,WeatherDisplay:10.37,2013-08-18 05:47:00,
2013-08-17 22:52:00,76.8,43.9,29.69,NE,38,0.0,0.0,31,0.00,CLR,,0.00,WeatherDisplay:10.37,2013-08-18 05:52:00,
2013-08-17 22:57:00,76.9,43.1,29.69,NE,38,2.3,2.3,30,0.00,CLR,,0.00,WeatherDisplay:10.37,2013-08-18 05:57:00,
2013-08-17 23:02:00,77.1,44.1,29.69,NE,38,3.5,3.5,31,0.00,CLR,,0.00,WeatherDisplay:10.37,2013-08-18 06:02:00,
2013-08-17 23:07:00,76.6,42.0,29.70,NE,40,4.0,4.0,29,0.00,OVC,,0.00,WeatherDisplay:10.37,2013-08-18 06:07:00,
2013-08-17 23:12:00,75.4,43.5,29.69,ENE,57,6.9,6.9,32,0.00,OVC,,0.00,WeatherDisplay:10.37,2013-08-18 06:12:00,
2013-08-17 23:17:00,76.1,44.1,29.69,ENE,68,4.0,4.0,32,0.00,CLR,,0.00,WeatherDisplay:10.37,2013-08-18 06:17:00,
2013-08-17 23:22:00,76.8,45.5,29.69,ESE,109,5.0,5.0,33,0.00,OVC,,0.00,WeatherDisplay:10.37,2013-08-18 06:22:00,
2013-08-17 23:27:00,77.2,45.9,29.69,ESE,109,3.5,3.5,33,0.00,OVC,,0.00,WeatherDisplay:10.37,2013-08-18 06:27:00,
2013-08-17 23:32:00,77.4,46.0,29.69,ESE,109,4.0,4.0,33,0.00,OVC,,0.00,WeatherDisplay:10.37,2013-08-18 06:32:00,
2013-08-17 23:37:00,77.5,46.1,29.69,ESE,123,9.2,9.2,33,0.00,OVC,,0.00,WeatherDisplay:10.37,2013-08-18 06:37:00,
2013-08-17 23:42:00,77.3,45.9,29.69,SE,136,8.1,8.1,33,0.00,OVC,,0.00,WeatherDisplay:10.37,2013-08-18 06:42:00,
2013-08-17 23:47:00,76.7,45.4,29.69,SSE,161,7.0,7.0,33,0.00,OVC,,0.00,WeatherDisplay:10.37,2013-08-18 06:47:00,
2013-08-17 23:52:00,76.9,45.6,29.69,SSE,163,4.6,4.6,33,0.00,OVC,,0.00,WeatherDisplay:10.37,2013-08-18 06:52:00,
2013-08-17 23:57:00,76.4,45.2,29.69,South,169,2.3,2.3,33,0.00,OVC,,0.00,WeatherDisplay:10.37,2013-08-18 06:57:00,